Time;durP1;ratioP1;P1;durP2;ratioP2;P2;SDS_P1;SDS_P2;PMS_P1;PMS_P2;Temp;Humidity;BMP_temperature;BMP_pressure;BME280_temperature;BME280_humidity;BME280_pressure;Samples;Min_cycle;Max_cycle;Signal;HPM_P1;HPM_P2
2021/08/19 00:01:15;;;;;;;4.50;1.75;;;;;;;21.42;47.73;99913.16;5052121;28;20099;-94
2021/08/19 00:03:43;;;;;;;7.63;1.90;;;;;;;21.61;47.40;99918.22;5050398;28;20388;-94
2021/08/19 00:06:10;;;;;;;7.85;1.83;;;;;;;21.22;49.52;99909.81;5051373;28;20067;-94
2021/08/19 00:08:39;;;;;;;8.70;2.42;;;;;;;21.09;50.07;99909.34;5048356;28;20060;-94
2021/08/19 00:11:07;;;;;;;3.03;1.67;;;;;;;21.64;48.12;99911.81;5052212;28;20391;-92
2021/08/19 00:13:34;;;;;;;2.63;1.75;;;;;;;21.29;48.58;99915.31;5052741;28;20041;-89
2021/08/19 00:16:02;;;;;;;3.25;1.50;;;;;;;21.07;49.20;99913.97;5046789;28;20045;-88
2021/08/19 00:18:29;;;;;;;6.25;2.75;;;;;;;20.95;49.31;99908.06;5052759;28;20487;-91
2021/08/19 00:20:56;;;;;;;2.75;2.28;;;;;;;20.90;49.66;99910.34;5050426;28;20037;-89
2021/08/19 00:23:23;;;;;;;2.35;1.67;;;;;;;20.93;50.10;99915.31;5052036;28;20041;-88
2021/08/19 00:25:51;;;;;;;4.82;1.70;;;;;;;20.78;50.46;99915.03;5052292;28;20045;-90
2021/08/19 00:28:17;;;;;;;6.38;2.38;;;;;;;20.75;50.67;99910.03;5050950;28;20064;-92
2021/08/19 00:30:44;;;;;;;11.90;3.67;;;;;;;20.80;50.17;99910.41;5051672;28;20082;-92
2021/08/19 00:33:11;;;;;;;12.93;2.83;;;;;;;20.76;50.56;99906.38;5049822;28;20033;-94
2021/08/19 00:35:38;;;;;;;5.40;2.08;;;;;;;20.65;51.71;99914.56;5051132;28;20045;-94
2021/08/19 00:38:06;;;;;;;9.57;2.13;;;;;;;20.59;52.02;99913.34;5045511;28;20042;-94
2021/08/19 00:40:34;;;;;;;3.17;1.83;;;;;;;20.79;51.89;99916.69;5031345;28;20052;-90
2021/08/19 00:43:06;;;;;;;2.90;1.80;;;;;;;20.46;52.96;99918.16;5031072;28;20084;-91
2021/08/19 00:45:37;;;;;;;3.95;1.50;;;;;;;20.56;52.80;99912.78;5030441;28;20540;-92
2021/08/19 00:48:05;;;;;;;4.65;1.75;;;;;;;20.64;52.69;99915.53;5030956;28;20136;-92
2021/08/19 00:50:32;;;;;;;2.67;1.83;;;;;;;20.55;53.06;99914.59;5032260;28;20422;-92
2021/08/19 00:53:02;;;;;;;3.35;2.00;;;;;;;20.36;53.67;99917.34;5038469;28;20042;-93
2021/08/19 00:55:30;;;;;;;6.25;2.47;;;;;;;20.24;54.00;99910.56;5038315;28;20052;-89
2021/08/19 00:57:57;;;;;;;3.67;1.42;;;;;;;20.15;54.22;99915.78;5038066;28;20068;-90
2021/08/19 01:00:25;;;;;;;7.43;2.58;;;;;;;19.94;55.24;99911.69;5034227;28;20091;-89
2021/08/19 01:02:54;;;;;;;2.35;1.67;;;;;;;19.84;55.64;99912.53;5036401;28;20041;-89
2021/08/19 01:05:29;;;;;;;3.15;2.13;;;;;;;19.98;55.40;99911.25;5035115;28;20077;-89
2021/08/19 01:07:58;;;;;;;5.00;2.08;;;;;;;19.88;56.01;99910.47;5036760;28;20111;-90
2021/08/19 01:10:27;;;;;;;3.50;2.00;;;;;;;19.89;55.95;99909.47;5036201;28;20395;-91
2021/08/19 01:12:54;;;;;;;2.22;1.67;;;;;;;20.00;55.57;99908.47;5036338;28;20091;-91
2021/08/19 01:15:22;;;;;;;3.63;2.20;;;;;;;20.11;55.16;99910.91;5036719;28;20122;-90
2021/08/19 01:18:01;;;;;;;5.78;1.80;;;;;;;19.85;55.86;99903.63;5036467;28;20045;-90
2021/08/19 01:20:34;;;;;;;4.47;1.80;;;;;;;19.89;55.94;99912.94;5035077;28;20050;-91
2021/08/19 01:23:01;;;;;;;3.53;1.95;;;;;;;19.80;56.06;99916.44;5035093;28;20072;-91
2021/08/19 01:25:28;;;;;;;5.10;1.98;;;;;;;20.00;55.37;99913.75;5036267;28;20037;-89
2021/08/19 01:27:56;;;;;;;6.82;2.38;;;;;;;19.94;55.34;99916.97;5036100;28;20068;-92
2021/08/19 01:30:25;;;;;;;5.75;1.80;;;;;;;19.97;55.80;99916.66;5036599;28;20384;-92
2021/08/19 01:32:52;;;;;;;3.47;2.33;;;;;;;19.97;55.60;99917.50;5036240;28;20373;-88
2021/08/19 01:35:21;;;;;;;3.30;2.13;;;;;;;20.02;55.25;99915.25;5034629;28;20053;-88
2021/08/19 01:37:48;;;;;;;4.55;1.85;;;;;;;19.86;56.00;99918.50;5035468;28;20042;-87
2021/08/19 01:40:15;;;;;;;1.83;1.67;;;;;;;19.68;56.48;99914.13;5035778;28;20511;-88
2021/08/19 01:42:43;;;;;;;4.05;1.70;;;;;;;19.73;56.59;99918.00;5035993;28;20447;-88
2021/08/19 01:45:13;;;;;;;5.30;2.10;;;;;;;19.64;56.88;99916.22;5035664;28;20045;-89
2021/08/19 01:47:39;;;;;;;4.05;1.67;;;;;;;19.68;56.52;99914.97;5034682;28;20510;-94
2021/08/19 01:50:07;;;;;;;3.38;1.55;;;;;;;19.63;56.50;99925.97;5035442;28;20095;-91
2021/08/19 01:52:34;;;;;;;3.45;1.90;;;;;;;19.46;57.28;99915.25;5035907;28;20135;-89
2021/08/19 01:55:02;;;;;;;2.83;2.22;;;;;;;19.57;57.07;99921.22;5035214;28;20046;-87
2021/08/19 01:57:28;;;;;;;7.57;2.03;;;;;;;19.48;57.41;99911.47;5035574;28;20069;-89
2021/08/19 01:59:55;;;;;;;7.70;1.70;;;;;;;19.65;56.97;99903.81;5033850;28;20095;-88
2021/08/19 02:02:22;;;;;;;3.15;2.78;;;;;;;19.63;56.88;99907.44;5034369;28;20038;-87
2021/08/19 02:04:49;;;;;;;6.20;2.35;;;;;;;19.58;57.10;99904.38;5034813;28;20045;-88
2021/08/19 02:07:16;;;;;;;5.82;2.30;;;;;;;19.48;57.36;99908.84;5035193;28;20488;-86
2021/08/19 02:09:42;;;;;;;3.08;1.95;;;;;;;19.33;57.71;99911.13;5035097;28;20069;-86
2021/08/19 02:12:10;;;;;;;10.43;1.80;;;;;;;19.40;57.42;99907.91;5035059;28;20069;-86
2021/08/19 02:14:37;;;;;;;4.88;2.00;;;;;;;19.28;58.03;99905.41;5049974;28;20373;-86
2021/08/19 02:17:05;;;;;;;5.30;2.25;;;;;;;19.21;58.14;99901.66;5035057;28;20049;-90
2021/08/19 02:19:31;;;;;;;3.95;1.70;;;;;;;19.31;58.05;99907.75;5035438;28;20498;-87
2021/08/19 02:21:58;;;;;;;5.95;2.08;;;;;;;19.38;57.93;99900.91;5034723;28;20042;-87
2021/08/19 02:24:25;;;;;;;1.85;1.42;;;;;;;19.31;57.95;99902.47;5034996;28;20038;-87
2021/08/19 02:26:51;;;;;;;8.15;2.15;;;;;;;19.36;57.75;99905.53;5034755;28;20091;-90
2021/08/19 02:29:18;;;;;;;3.85;1.55;;;;;;;19.41;57.60;99902.47;5035124;28;20041;-87
2021/08/19 02:31:45;;;;;;;5.28;1.77;;;;;;;19.38;57.56;99911.50;5034325;28;20041;-87
2021/08/19 02:34:12;;;;;;;1.92;1.60;;;;;;;19.22;58.32;99903.31;5035227;28;20451;-89
2021/08/19 02:36:38;;;;;;;3.95;2.00;;;;;;;19.21;58.44;99906.94;5033361;28;20408;-88
2021/08/19 02:39:05;;;;;;;2.47;1.50;;;;;;;19.19;58.50;99908.88;5049800;28;20037;-88
2021/08/19 02:41:32;;;;;;;5.25;1.95;;;;;;;19.17;58.68;99907.34;5035280;28;20049;-88
2021/08/19 02:43:58;;;;;;;5.28;1.92;;;;;;;19.38;57.87;99908.03;5034746;28;20050;-88
2021/08/19 02:46:28;;;;;;;5.07;1.48;;;;;;;19.25;58.17;99908.31;5034948;28;20103;-88
2021/08/19 02:48:55;;;;;;;1.98;1.52;;;;;;;19.12;58.87;99915.69;5034304;28;20088;-88
2021/08/19 02:51:22;;;;;;;3.65;1.85;;;;;;;19.10;58.95;99917.66;5034753;28;20049;-88
2021/08/19 02:53:48;;;;;;;5.45;1.83;;;;;;;19.16;58.78;99914.44;5034272;28;20488;-88
2021/08/19 02:56:15;;;;;;;4.95;1.63;;;;;;;19.01;59.20;99913.19;5034412;28;20567;-91
2021/08/19 02:58:42;;;;;;;3.08;1.95;;;;;;;19.02;59.23;99914.88;5033130;28;20046;-91
2021/08/19 03:01:09;;;;;;;2.22;1.65;;;;;;;19.07;59.30;99917.94;5034656;28;20069;-87
2021/08/19 03:03:37;;;;;;;5.32;1.48;;;;;;;18.95;59.91;99916.38;5034098;28;20081;-87
2021/08/19 03:06:05;;;;;;;26.88;2.83;;;;;;;18.96;59.80;99912.75;5034121;28;20042;-87
2021/08/19 03:08:32;;;;;;;3.63;1.63;;;;;;;18.75;60.78;99916.38;5034528;28;20048;-90
2021/08/19 03:10:59;;;;;;;3.13;1.83;;;;;;;18.94;60.07;99914.72;5032782;28;20076;-89
2021/08/19 03:13:25;;;;;;;4.97;1.85;;;;;;;19.01;59.85;99900.81;5033968;28;20095;-85
2021/08/19 03:15:53;;;;;;;3.45;1.90;;;;;;;18.88;60.42;99910.00;5033856;28;20096;-90
2021/08/19 03:18:20;;;;;;;4.32;1.73;;;;;;;18.80;60.66;99902.75;5032922;28;20045;-92
2021/08/19 03:20:47;;;;;;;2.75;2.20;;;;;;;19.06;59.71;99910.97;5033692;28;20033;-91
2021/08/19 03:23:14;;;;;;;6.82;1.83;;;;;;;19.01;59.69;99910.53;5034413;28;20041;-92
2021/08/19 03:25:40;;;;;;;2.28;1.50;;;;;;;19.04;59.58;99903.19;5034548;28;20057;-91
2021/08/19 03:28:10;;;;;;;1.80;1.70;;;;;;;18.86;60.13;99902.22;5034002;28;20480;-91
2021/08/19 03:30:37;;;;;;;6.93;2.33;;;;;;;18.79;60.37;99912.47;5033814;28;20076;-88
2021/08/19 03:33:05;;;;;;;6.05;2.20;;;;;;;18.78;60.49;99912.63;5033336;28;20558;-89
2021/08/19 03:35:33;;;;;;;2.88;1.80;;;;;;;18.74;60.61;99913.84;5033872;28;20041;-93
2021/08/19 03:38:00;;;;;;;2.35;1.92;;;;;;;18.71;60.69;99911.50;5033484;28;20050;-92
2021/08/19 03:40:26;;;;;;;5.88;1.50;;;;;;;18.59;60.88;99911.59;5034016;28;20399;-90
2021/08/19 03:42:54;;;;;;;10.32;2.58;;;;;;;18.69;60.68;99910.78;5033368;28;20037;-89
2021/08/19 03:45:21;;;;;;;2.90;2.10;;;;;;;18.73;60.51;99913.03;5033137;28;20038;-89
2021/08/19 03:47:47;;;;;;;9.15;2.17;;;;;;;18.59;60.61;99916.06;5033457;28;20488;-88
2021/08/19 03:50:14;;;;;;;3.70;2.30;;;;;;;18.69;60.25;99922.19;5033573;28;20064;-88
2021/08/19 03:52:42;;;;;;;8.20;2.60;;;;;;;18.78;59.85;99926.66;5033418;28;20038;-88
2021/08/19 03:55:09;;;;;;;6.45;2.10;;;;;;;18.89;59.50;99924.88;5033645;28;20496;-87
2021/08/19 03:57:36;;;;;;;3.10;1.98;;;;;;;20.15;56.08;99929.00;5033509;28;20053;-88
2021/08/19 04:00:05;;;;;;;3.53;2.25;;;;;;;19.11;58.40;99921.94;5032955;28;20488;-87
2021/08/19 04:02:37;;;;;;;3.65;2.22;;;;;;;18.70;60.08;99926.53;5033143;28;20072;-87
2021/08/19 04:05:04;;;;;;;2.55;1.73;;;;;;;18.72;60.29;99927.22;5033016;28;20037;-86
2021/08/19 04:07:36;;;;;;;3.72;2.08;;;;;;;18.75;60.10;99937.50;5033156;28;20041;-86
2021/08/19 04:10:06;;;;;;;5.63;2.35;;;;;;;18.61;60.23;99931.75;5032506;28;20038;-84
2021/08/19 04:12:34;;;;;;;2.97;1.73;;;;;;;18.65;59.32;99922.59;5033149;28;20042;-86
2021/08/19 04:15:14;;;;;;;3.10;2.25;;;;;;;18.54;59.41;99926.19;5033205;28;20653;-88
2021/08/19 04:17:41;;;;;;;4.47;1.75;;;;;;;18.63;59.08;99927.16;5033334;28;20064;-87
2021/08/19 04:20:08;;;;;;;3.65;1.80;;;;;;;18.63;58.63;99930.63;5030720;28;20179;-85
2021/08/19 04:22:35;;;;;;;3.38;2.53;;;;;;;18.79;57.88;99923.03;5032995;28;20045;-88
2021/08/19 04:25:02;;;;;;;4.93;1.77;;;;;;;18.83;57.60;99913.03;5047523;28;20073;-86
2021/08/19 04:27:29;;;;;;;3.17;1.77;;;;;;;18.62;58.21;99921.03;5033196;28;20037;-87
2021/08/19 04:29:55;;;;;;;3.88;2.17;;;;;;;18.72;57.87;99915.81;5032638;28;20042;-86
2021/08/19 04:32:22;;;;;;;5.20;1.55;;;;;;;18.80;57.47;99923.88;5032466;28;20045;-86
2021/08/19 04:34:49;;;;;;;2.92;1.70;;;;;;;18.72;57.70;99914.00;5031385;28;20045;-87
2021/08/19 04:37:16;;;;;;;6.97;1.88;;;;;;;18.71;57.95;99912.34;5032015;28;20038;-87
2021/08/19 04:39:42;;;;;;;4.10;1.58;;;;;;;18.80;57.18;99914.16;5032538;28;20046;-88
2021/08/19 04:42:09;;;;;;;4.30;1.80;;;;;;;18.79;57.50;99923.03;5032265;28;20041;-88
2021/08/19 04:44:36;;;;;;;6.22;2.08;;;;;;;18.84;57.67;99915.53;5032684;28;20037;-88
2021/08/19 04:47:03;;;;;;;8.00;1.92;;;;;;;18.96;57.37;99918.91;5032244;28;20065;-87
2021/08/19 04:49:30;;;;;;;4.72;1.70;;;;;;;18.94;57.44;99920.00;5032791;28;20045;-88
2021/08/19 04:51:57;;;;;;;4.45;1.65;;;;;;;18.97;57.22;99914.47;5047579;28;20096;-88
2021/08/19 04:54:23;;;;;;;3.72;1.98;;;;;;;19.20;56.72;99915.84;5031566;28;20045;-87
2021/08/19 04:56:50;;;;;;;1.67;1.27;;;;;;;19.23;56.39;99915.56;5033152;28;20099;-89
2021/08/19 04:59:17;;;;;;;5.38;1.88;;;;;;;19.26;56.03;99910.00;5032944;28;20037;-88
2021/08/19 05:01:44;;;;;;;2.25;1.70;;;;;;;19.33;55.85;99908.47;5033020;28;20033;-88
2021/08/19 05:04:11;;;;;;;4.93;2.15;;;;;;;19.44;55.96;99912.78;5032540;28;20125;-88
2021/08/19 05:06:38;;;;;;;4.03;2.20;;;;;;;19.81;54.65;99907.53;5032470;28;20060;-89
2021/08/19 05:09:06;;;;;;;6.65;1.90;;;;;;;20.17;53.38;99909.50;5031443;28;20611;-89
2021/08/19 05:11:33;;;;;;;3.15;2.10;;;;;;;21.05;51.96;99911.50;5032830;28;20049;-90
2021/08/19 05:14:00;;;;;;;2.42;1.90;;;;;;;21.40;50.38;99921.22;5033095;28;20045;-92
2021/08/19 05:16:28;;;;;;;3.33;2.15;;;;;;;21.16;52.26;99927.16;5032637;28;20042;-90
2021/08/19 05:18:56;;;;;;;3.70;1.92;;;;;;;21.22;52.52;99927.53;5033225;28;20038;-92
2021/08/19 05:21:24;;;;;;;6.72;3.22;;;;;;;20.67;54.05;99924.03;5032631;28;20050;-90
2021/08/19 05:23:51;;;;;;;8.25;3.30;;;;;;;20.34;55.36;99922.78;5047748;28;20439;-91
2021/08/19 05:26:18;;;;;;;10.15;3.85;;;;;;;20.04;56.42;99931.00;5031633;28;20042;-87
2021/08/19 05:28:47;;;;;;;8.60;4.93;;;;;;;20.05;56.51;99930.03;5031389;28;20068;-86
2021/08/19 05:31:14;;;;;;;9.38;5.15;;;;;;;20.23;56.29;99935.38;5031111;28;20037;-91
2021/08/19 05:33:41;;;;;;;7.20;5.57;;;;;;;19.85;57.38;99932.72;5031054;28;20085;-85
2021/08/19 05:36:08;;;;;;;6.07;4.78;;;;;;;20.67;54.94;99937.28;5030755;28;20041;-87
2021/08/19 05:38:39;;;;;;;9.82;4.88;;;;;;;20.42;55.90;99936.13;5028633;28;20065;-90
2021/08/19 05:41:06;;;;;;;8.43;4.85;;;;;;;20.49;55.47;99939.03;5031294;28;20555;-89
2021/08/19 05:43:33;;;;;;;7.15;3.80;;;;;;;20.94;54.53;99946.16;5049834;28;20042;-93
2021/08/19 05:46:00;;;;;;;19.35;4.80;;;;;;;20.35;55.74;99950.94;5033855;28;20040;-92
2021/08/19 05:48:27;;;;;;;8.70;4.55;;;;;;;20.40;55.83;99951.34;5042670;28;20058;-93
2021/08/19 05:50:54;;;;;;;23.25;4.35;;;;;;;20.98;54.47;99946.66;5035132;28;20172;-92
2021/08/19 05:53:21;;;;;;;9.15;4.30;;;;;;;20.41;55.57;99939.75;5031304;28;20084;-93
2021/08/19 05:55:47;;;;;;;11.48;4.35;;;;;;;20.60;55.30;99945.94;5034034;28;20515;-90
2021/08/19 05:58:16;;;;;;;8.85;4.93;;;;;;;20.54;54.84;99941.25;5030655;28;20034;-90
2021/08/19 06:00:49;;;;;;;13.60;4.40;;;;;;;20.61;54.78;99934.38;5030141;28;20037;-86
2021/08/19 06:03:17;;;;;;;12.18;4.43;;;;;;;20.48;54.93;99940.03;5030849;28;20038;-80
2021/08/19 06:05:45;;;;;;;10.70;4.32;;;;;;;20.87;54.21;99940.59;5023558;28;20156;-91
2021/08/19 06:08:12;;;;;;;8.73;3.58;;;;;;;21.09;54.45;99942.00;5030026;28;20040;-89
2021/08/19 06:10:42;;;;;;;8.18;4.15;;;;;;;21.24;54.45;99936.16;5031608;28;20048;-85
2021/08/19 06:13:09;;;;;;;8.38;4.13;;;;;;;21.09;53.94;99938.50;5031191;28;20048;-82
2021/08/19 06:15:35;;;;;;;4.88;3.88;;;;;;;21.16;53.82;99944.88;5031468;28;20042;-83
2021/08/19 06:18:04;;;;;;;11.00;3.10;;;;;;;21.49;52.96;99943.34;5030767;28;20064;-82
2021/08/19 06:20:31;;;;;;;7.65;3.42;;;;;;;21.93;51.55;99938.00;5030934;28;20439;-84
2021/08/19 06:22:59;;;;;;;6.25;3.25;;;;;;;21.46;52.15;99946.31;5031088;28;20507;-84
2021/08/19 06:25:26;;;;;;;6.30;3.60;;;;;;;21.53;51.95;99946.53;5031872;28;20084;-83
2021/08/19 06:27:53;;;;;;;11.55;3.15;;;;;;;21.55;51.81;99945.38;5032850;28;20484;-83
2021/08/19 06:30:22;;;;;;;5.38;2.88;;;;;;;21.79;51.38;99950.03;5032615;28;20463;-84
2021/08/19 06:32:48;;;;;;;10.77;3.88;;;;;;;21.71;51.27;99949.97;5034181;28;20049;-85
2021/08/19 06:35:16;;;;;;;6.80;3.13;;;;;;;21.90;50.82;99943.63;5034003;28;20037;-82
2021/08/19 06:37:43;;;;;;;10.63;3.45;;;;;;;21.90;50.70;99946.28;5033516;28;20492;-82
2021/08/19 06:40:10;;;;;;;11.70;2.38;;;;;;;21.85;50.43;99952.06;5034194;28;20068;-82
2021/08/19 06:42:36;;;;;;;7.40;3.22;;;;;;;22.01;50.45;99954.00;5033799;28;20041;-83
2021/08/19 06:45:04;;;;;;;8.73;3.00;;;;;;;22.28;49.70;99955.66;5034451;28;20048;-84
2021/08/19 06:47:30;;;;;;;6.05;2.75;;;;;;;22.70;48.67;99947.66;5033934;28;20443;-84
2021/08/19 06:49:57;;;;;;;6.90;2.65;;;;;;;22.79;48.28;99948.50;5033927;28;20457;-84
2021/08/19 06:52:24;;;;;;;3.17;2.67;;;;;;;22.56;48.78;99950.09;5033953;28;20045;-83
2021/08/19 06:54:51;;;;;;;5.53;2.40;;;;;;;22.75;48.17;99952.50;5034390;28;20068;-84
2021/08/19 06:57:17;;;;;;;6.70;4.20;;;;;;;22.72;48.34;99950.97;5034399;28;20042;-83
2021/08/19 06:59:44;;;;;;;6.72;2.50;;;;;;;22.85;47.48;99950.53;5034002;28;20099;-83
2021/08/19 07:02:11;;;;;;;3.30;2.67;;;;;;;22.32;48.61;99954.34;5034610;28;20041;-83
2021/08/19 07:04:38;;;;;;;9.88;3.25;;;;;;;22.49;48.03;99949.94;5033087;28;20034;-81
2021/08/19 07:07:05;;;;;;;4.18;2.13;;;;;;;22.62;48.56;99944.97;5033029;28;20071;-83
2021/08/19 07:09:32;;;;;;;5.55;2.67;;;;;;;22.51;49.12;99944.44;5033064;28;20041;-83
2021/08/19 07:11:58;;;;;;;4.45;2.67;;;;;;;22.68;48.51;99940.84;5033670;28;20458;-82
2021/08/19 07:14:25;;;;;;;6.10;2.72;;;;;;;22.54;48.82;99947.63;5032428;28;20721;-84
2021/08/19 07:16:52;;;;;;;8.02;2.83;;;;;;;22.54;48.81;99944.13;5031509;28;20041;-85
2021/08/19 07:19:19;;;;;;;7.32;2.72;;;;;;;22.93;47.71;99949.75;5033993;28;20195;-84
2021/08/19 07:21:46;;;;;;;5.63;2.90;;;;;;;22.79;47.85;99951.16;5027104;28;20046;-85
2021/08/19 07:24:13;;;;;;;4.85;3.17;;;;;;;23.03;48.02;99949.59;5021032;28;20030;-85
2021/08/19 07:26:39;;;;;;;4.00;2.42;;;;;;;23.12;47.82;99953.94;5031194;28;20119;-84
2021/08/19 07:29:06;;;;;;;3.55;3.25;;;;;;;23.07;47.76;99948.28;5024214;28;20042;-84
2021/08/19 07:31:35;;;;;;;7.82;3.38;;;;;;;23.06;48.17;99946.59;5021863;28;20057;-82
2021/08/19 07:34:02;;;;;;;7.00;2.75;;;;;;;23.11;48.05;99947.75;5024497;28;20092;-83
2021/08/19 07:36:29;;;;;;;3.78;2.88;;;;;;;23.09;47.55;99946.28;5019285;28;20042;-81
2021/08/19 07:38:59;;;;;;;5.95;2.83;;;;;;;22.98;47.80;99950.09;5017544;28;20099;-83
2021/08/19 07:41:26;;;;;;;8.82;3.35;;;;;;;23.31;47.55;99945.63;5017767;28;20045;-80
2021/08/19 07:43:53;;;;;;;4.75;3.10;;;;;;;22.90;47.82;99945.56;5017352;28;20053;-82
2021/08/19 07:46:23;;;;;;;6.18;2.90;;;;;;;23.00;47.88;99956.06;5017098;28;20058;-82
2021/08/19 07:48:49;;;;;;;4.80;3.00;;;;;;;23.00;47.76;99948.06;5016074;28;20550;-81
2021/08/19 07:51:16;;;;;;;5.38;3.08;;;;;;;23.19;47.17;99946.94;5026292;28;20041;-83
2021/08/19 07:53:43;;;;;;;5.60;2.95;;;;;;;23.31;47.54;99947.44;5028145;28;20061;-81
2021/08/19 07:56:10;;;;;;;8.80;3.75;;;;;;;22.92;48.58;99956.06;5029564;28;20046;-81
2021/08/19 07:58:37;;;;;;;4.80;2.47;;;;;;;23.31;47.99;99956.25;5027417;28;20045;-79
2021/08/19 08:01:04;;;;;;;5.05;3.42;;;;;;;23.04;48.68;99964.53;5028916;28;20076;-80
2021/08/19 08:03:31;;;;;;;8.43;3.30;;;;;;;23.40;47.71;99955.25;5030128;28;20048;-80
2021/08/19 08:05:58;;;;;;;6.65;3.38;;;;;;;23.58;47.47;99963.06;5031166;28;20465;-80
2021/08/19 08:08:25;;;;;;;12.55;4.05;;;;;;;23.50;47.72;99958.59;5025696;28;20046;-80
2021/08/19 08:10:51;;;;;;;11.27;4.00;;;;;;;23.45;47.48;99962.75;5027129;28;20041;-81
2021/08/19 08:13:18;;;;;;;7.78;3.63;;;;;;;23.66;47.18;99964.94;5028854;28;20867;-82
2021/08/19 08:15:45;;;;;;;5.78;3.70;;;;;;;23.12;49.09;99959.25;5029980;28;20045;-82
2021/08/19 08:18:17;;;;;;;4.65;3.22;;;;;;;23.57;47.74;99965.91;5028408;28;20052;-82
2021/08/19 08:20:45;;;;;;;9.07;3.63;;;;;;;23.83;46.13;99966.56;5025687;28;20492;-81
2021/08/19 08:23:17;;;;;;;9.02;3.92;;;;;;;23.87;46.63;99965.25;5025889;28;20069;-81
2021/08/19 08:25:45;;;;;;;9.52;2.90;;;;;;;24.01;45.45;99959.19;5029675;28;20382;-81
2021/08/19 08:28:14;;;;;;;5.68;3.55;;;;;;;24.17;45.00;99962.81;5029213;28;20041;-81
2021/08/19 08:30:51;;;;;;;6.13;3.30;;;;;;;24.11;45.32;99968.84;5026082;28;20048;-80
2021/08/19 08:33:19;;;;;;;5.75;2.97;;;;;;;23.95;45.41;99965.22;5026424;28;20038;-81
2021/08/19 08:35:45;;;;;;;5.70;2.88;;;;;;;24.13;45.63;99967.69;5028063;28;20037;-82
2021/08/19 08:38:16;;;;;;;9.25;3.85;;;;;;;24.11;45.40;99958.19;5027598;28;20088;-82
2021/08/19 08:40:48;;;;;;;6.00;2.83;;;;;;;24.18;44.84;99961.81;5025265;28;20041;-80
2021/08/19 08:43:20;;;;;;;4.45;2.90;;;;;;;23.88;45.50;99958.91;5027811;28;20041;-81
2021/08/19 08:45:50;;;;;;;5.32;3.10;;;;;;;24.18;45.02;99957.34;5027080;28;20042;-82
2021/08/19 08:48:23;;;;;;;5.40;2.75;;;;;;;24.46;43.72;99957.75;5050535;28;20141;-83
2021/08/19 08:50:52;;;;;;;4.00;3.25;;;;;;;24.50;43.49;99959.06;5030790;28;20045;-81
2021/08/19 08:53:19;;;;;;;6.28;2.38;;;;;;;24.58;43.41;99957.38;5027634;28;20041;-84
2021/08/19 08:55:46;;;;;;;2.22;1.98;;;;;;;24.62;42.46;99956.03;5029775;28;20045;-83
2021/08/19 08:58:15;;;;;;;7.68;2.42;;;;;;;24.74;42.81;99957.28;5029325;28;20124;-83
2021/08/19 09:00:45;;;;;;;6.85;2.53;;;;;;;24.67;43.19;99956.34;5030184;28;20049;-83
2021/08/19 09:03:17;;;;;;;5.35;2.50;;;;;;;24.73;43.31;99953.78;5028049;28;20441;-84
2021/08/19 09:05:47;;;;;;;7.28;3.03;;;;;;;24.78;42.79;99963.94;5028878;28;20045;-83
2021/08/19 09:08:19;;;;;;;6.22;2.78;;;;;;;24.80;42.71;99957.41;5029349;28;20041;-83
2021/08/19 09:10:50;;;;;;;5.50;2.28;;;;;;;24.60;43.45;99963.34;5026957;28;20049;-83
2021/08/19 09:13:23;;;;;;;13.07;3.17;;;;;;;24.41;43.64;99969.94;5032113;28;20120;-82
2021/08/19 09:15:51;;;;;;;5.13;2.75;;;;;;;24.56;43.56;99962.88;5029080;28;20515;-84
2021/08/19 09:18:38;;;;;;;10.75;3.50;;;;;;;24.65;43.40;99951.16;5034610;28;20056;-84
2021/08/19 09:21:25;;;;;;;4.18;2.42;;;;;;;25.06;42.54;99950.94;5030459;28;20041;-84
2021/08/19 09:24:28;;;;;;;3.47;2.63;;;;;;;25.17;41.92;99955.03;5029785;28;20100;-82
2021/08/19 09:27:09;;;;;;;4.63;2.50;;;;;;;25.16;42.28;99950.72;5022000;28;20073;-84
2021/08/19 09:29:36;;;;;;;7.28;3.20;;;;;;;24.84;43.96;99941.91;5028752;28;20057;-83
2021/08/19 09:32:13;;;;;;;6.25;3.00;;;;;;;24.99;43.66;99948.13;5032782;28;20472;-83
2021/08/19 09:34:42;;;;;;;5.00;2.38;;;;;;;24.84;42.51;99944.56;5029491;28;20116;-84
2021/08/19 09:37:14;;;;;;;6.00;2.30;;;;;;;25.12;41.93;99957.41;5027603;28;20488;-83
2021/08/19 09:39:48;;;;;;;6.72;2.78;;;;;;;25.25;41.14;99953.16;5031329;28;20042;-83
2021/08/19 09:42:15;;;;;;;3.47;2.63;;;;;;;24.99;41.42;99944.63;5031075;28;20506;-83
2021/08/19 09:44:45;;;;;;;13.20;3.78;;;;;;;25.00;42.60;99941.78;5032582;28;20041;-83
2021/08/19 09:47:28;;;;;;;10.40;2.65;;;;;;;25.35;42.38;99944.88;5031943;28;20056;-84
2021/08/19 09:50:19;;;;;;;3.30;2.10;;;;;;;25.38;40.87;99941.88;5031650;28;20053;-84
2021/08/19 09:52:48;;;;;;;10.05;2.35;;;;;;;25.53;41.27;99945.41;5031206;28;20550;-79
2021/08/19 09:55:21;;;;;;;5.90;2.60;;;;;;;25.47;42.00;99940.78;5030423;28;20042;-83
2021/08/19 09:57:48;;;;;;;4.50;2.40;;;;;;;25.33;41.52;99936.25;5032784;28;20483;-81
2021/08/19 10:00:30;;;;;;;3.28;2.67;;;;;;;25.46;41.26;99941.81;5033187;28;20404;-84
2021/08/19 10:02:58;;;;;;;11.73;3.05;;;;;;;25.50;42.08;99929.75;5032351;28;20042;-84
2021/08/19 10:05:25;;;;;;;10.50;3.38;;;;;;;25.36;41.76;99927.88;5029557;28;20037;-84
2021/08/19 10:07:52;;;;;;;10.63;3.20;;;;;;;25.73;40.46;99924.38;5030024;28;20056;-82
2021/08/19 10:10:19;;;;;;;6.00;3.63;;;;;;;25.76;40.11;99928.53;5031387;28;20033;-82
2021/08/19 10:12:48;;;;;;;4.95;2.53;;;;;;;25.81;39.90;99924.28;5032252;28;20107;-81
2021/08/19 10:15:15;;;;;;;4.10;2.67;;;;;;;25.96;39.89;99929.66;5031669;28;20045;-81
2021/08/19 10:17:48;;;;;;;10.80;3.08;;;;;;;25.69;40.43;99938.25;5028532;28;20426;-80
2021/08/19 10:20:19;;;;;;;5.63;2.42;;;;;;;25.68;41.09;99923.25;5027007;28;20042;-80
2021/08/19 10:22:49;;;;;;;6.65;2.78;;;;;;;26.04;40.51;99920.72;5023174;28;20064;-81
2021/08/19 10:25:18;;;;;;;4.05;3.05;;;;;;;26.09;40.22;99915.63;5020043;28;20113;-81
2021/08/19 10:27:46;;;;;;;4.85;2.47;;;;;;;26.25;38.98;99912.75;5018936;28;20046;-82
2021/08/19 10:30:21;;;;;;;6.40;2.70;;;;;;;26.37;39.04;99907.78;5028824;28;20037;-82
2021/08/19 10:32:52;;;;;;;4.32;2.45;;;;;;;26.27;38.78;99904.59;5029670;28;20079;-83
2021/08/19 10:35:27;;;;;;;60.17;3.58;;;;;;;26.29;39.14;99913.22;5033403;28;20045;-83
2021/08/19 10:37:54;;;;;;;6.32;2.15;;;;;;;26.34;38.11;99900.13;5033616;28;20045;-84
2021/08/19 10:40:29;;;;;;;2.63;2.13;;;;;;;26.79;37.55;99903.53;5033843;28;20037;-82
2021/08/19 10:43:34;;;;;;;5.15;2.28;;;;;;;26.58;38.75;99907.88;5033625;28;20037;-83
2021/08/19 10:46:15;;;;;;;2.55;1.73;;;;;;;26.57;38.27;99900.03;5032958;28;20352;-84
2021/08/19 10:48:53;;;;;;;3.78;2.15;;;;;;;26.67;38.56;99900.53;5032238;28;20483;-82
2021/08/19 10:51:20;;;;;;;1.75;1.50;;;;;;;26.78;37.68;99897.38;5018229;28;20069;-84
2021/08/19 10:53:47;;;;;;;4.03;2.17;;;;;;;26.68;38.02;99890.69;5018036;28;20092;-81
2021/08/19 10:56:22;;;;;;;3.72;2.50;;;;;;;26.72;38.18;99894.63;5031441;28;20431;-85
2021/08/19 10:58:48;;;;;;;5.05;2.55;;;;;;;26.62;37.82;99887.75;5032959;28;20566;-85
2021/08/19 11:01:18;;;;;;;3.63;2.45;;;;;;;26.78;37.19;99891.19;5022085;28;20091;-83
2021/08/19 11:03:47;;;;;;;6.30;2.67;;;;;;;26.80;36.26;99883.84;5022245;28;20099;-84
2021/08/19 11:06:19;;;;;;;4.63;2.03;;;;;;;26.74;36.98;99884.56;5030775;28;20363;-85
2021/08/19 11:08:47;;;;;;;4.07;2.55;;;;;;;26.80;36.78;99894.53;5023946;28;20520;-84
2021/08/19 11:11:43;;;;;;;8.88;2.58;;;;;;;26.56;36.78;99885.81;5029309;28;20073;-85
2021/08/19 11:14:21;;;;;;;3.72;2.13;;;;;;;26.86;35.74;99889.25;5028709;28;20095;-83
2021/08/19 11:16:58;;;;;;;3.00;2.08;;;;;;;26.83;36.32;99878.09;5022886;28;20037;-84
2021/08/19 11:19:27;;;;;;;2.13;1.65;;;;;;;26.95;36.24;99881.06;5017463;28;20046;-85
2021/08/19 11:22:04;;;;;;;3.05;1.95;;;;;;;26.81;36.06;99880.13;5025471;28;20042;-84
2021/08/19 11:24:33;;;;;;;2.08;1.70;;;;;;;26.95;35.97;99871.19;5031600;28;20037;-82
2021/08/19 11:27:02;;;;;;;1.98;1.52;;;;;;;26.96;35.29;99872.88;5028987;28;20099;-83
2021/08/19 11:29:40;;;;;;;2.95;2.08;;;;;;;27.19;35.58;99866.50;5021997;28;20045;-82
2021/08/19 11:32:24;;;;;;;2.05;1.50;;;;;;;27.51;34.38;99863.25;5029135;28;20045;-83
2021/08/19 11:34:51;;;;;;;3.40;2.35;;;;;;;27.38;34.21;99860.50;5033770;28;20093;-82
2021/08/19 11:37:30;;;;;;;6.82;1.88;;;;;;;27.37;35.17;99856.97;5020429;28;20072;-80
2021/08/19 11:40:03;;;;;;;5.90;2.10;;;;;;;27.42;34.25;99856.38;5024096;28;20100;-78